sensor_id;sensor_type;location;lat;lon;timestamp;P1;durP1;ratioP1;P2;durP2;ratioP2
14141;SDS011;7151;52.246;4.820;2023-11-21T00:00:12;5.27;;;2.83;;
14141;SDS011;7151;52.246;4.820;2023-11-21T00:02:39;4.90;;;3.60;;
14141;SDS011;7151;52.246;4.820;2023-11-21T00:05:06;4.23;;;2.50;;
14141;SDS011;7151;52.246;4.820;2023-11-21T00:07:34;3.97;;;3.00;;
14141;SDS011;7151;52.246;4.820;2023-11-21T00:10:01;4.03;;;2.43;;
14141;SDS011;7151;52.246;4.820;2023-11-21T00:12:27;4.73;;;2.77;;
14141;SDS011;7151;52.246;4.820;2023-11-21T00:14:54;4.43;;;3.30;;
14141;SDS011;7151;52.246;4.820;2023-11-21T00:17:20;4.50;;;3.00;;
14141;SDS011;7151;52.246;4.820;2023-11-21T00:19:45;6.17;;;3.33;;
14141;SDS011;7151;52.246;4.820;2023-11-21T00:22:11;5.80;;;3.20;;
14141;SDS011;7151;52.246;4.820;2023-11-21T00:24:37;3.97;;;3.03;;
14141;SDS011;7151;52.246;4.820;2023-11-21T00:27:02;5.90;;;3.40;;
14141;SDS011;7151;52.246;4.820;2023-11-21T00:29:28;4.87;;;2.83;;
14141;SDS011;7151;52.246;4.820;2023-11-21T00:31:54;4.07;;;2.80;;
14141;SDS011;7151;52.246;4.820;2023-11-21T00:34:19;4.37;;;3.27;;
14141;SDS011;7151;52.246;4.820;2023-11-21T00:36:45;4.10;;;2.77;;
14141;SDS011;7151;52.246;4.820;2023-11-21T00:39:10;5.60;;;2.90;;
14141;SDS011;7151;52.246;4.820;2023-11-21T00:41:37;4.17;;;2.93;;
14141;SDS011;7151;52.246;4.820;2023-11-21T00:44:02;4.87;;;2.80;;
14141;SDS011;7151;52.246;4.820;2023-11-21T00:46:28;2.77;;;2.43;;
14141;SDS011;7151;52.246;4.820;2023-11-21T00:48:54;8.07;;;3.57;;
14141;SDS011;7151;52.246;4.820;2023-11-21T00:51:20;5.20;;;2.40;;
14141;SDS011;7151;52.246;4.820;2023-11-21T00:53:47;4.90;;;2.70;;
14141;SDS011;7151;52.246;4.820;2023-11-21T00:56:13;4.80;;;2.87;;
14141;SDS011;7151;52.246;4.820;2023-11-21T00:58:39;6.83;;;3.20;;
14141;SDS011;7151;52.246;4.820;2023-11-21T01:01:11;3.53;;;2.73;;
14141;SDS011;7151;52.246;4.820;2023-11-21T01:03:37;6.00;;;2.63;;
14141;SDS011;7151;52.246;4.820;2023-11-21T01:06:03;3.20;;;2.90;;
14141;SDS011;7151;52.246;4.820;2023-11-21T01:08:32;6.30;;;3.07;;
14141;SDS011;7151;52.246;4.820;2023-11-21T01:10:57;6.03;;;3.27;;
14141;SDS011;7151;52.246;4.820;2023-11-21T01:13:23;7.87;;;3.20;;
14141;SDS011;7151;52.246;4.820;2023-11-21T01:15:48;4.60;;;2.87;;
14141;SDS011;7151;52.246;4.820;2023-11-21T01:18:14;7.73;;;3.07;;
14141;SDS011;7151;52.246;4.820;2023-11-21T01:20:40;5.17;;;3.00;;
14141;SDS011;7151;52.246;4.820;2023-11-21T01:23:05;4.03;;;2.60;;
14141;SDS011;7151;52.246;4.820;2023-11-21T01:25:31;5.47;;;2.87;;
14141;SDS011;7151;52.246;4.820;2023-11-21T01:27:56;4.03;;;2.60;;
14141;SDS011;7151;52.246;4.820;2023-11-21T01:30:22;7.17;;;2.60;;
14141;SDS011;7151;52.246;4.820;2023-11-21T01:32:47;4.70;;;2.90;;
14141;SDS011;7151;52.246;4.820;2023-11-21T01:35:13;4.00;;;3.47;;
14141;SDS011;7151;52.246;4.820;2023-11-21T01:37:39;3.23;;;2.50;;
14141;SDS011;7151;52.246;4.820;2023-11-21T01:40:04;6.50;;;2.70;;
14141;SDS011;7151;52.246;4.820;2023-11-21T01:42:34;4.93;;;2.47;;
14141;SDS011;7151;52.246;4.820;2023-11-21T01:45:00;4.53;;;2.53;;
14141;SDS011;7151;52.246;4.820;2023-11-21T01:47:29;4.53;;;2.57;;
14141;SDS011;7151;52.246;4.820;2023-11-21T01:49:56;4.53;;;2.63;;
14141;SDS011;7151;52.246;4.820;2023-11-21T01:52:22;5.70;;;2.80;;
14141;SDS011;7151;52.246;4.820;2023-11-21T01:54:49;4.50;;;3.27;;
14141;SDS011;7151;52.246;4.820;2023-11-21T01:57:15;4.40;;;2.93;;
14141;SDS011;7151;52.246;4.820;2023-11-21T01:59:40;4.73;;;2.33;;
14141;SDS011;7151;52.246;4.820;2023-11-21T02:02:07;4.27;;;2.60;;
14141;SDS011;7151;52.246;4.820;2023-11-21T02:04:34;3.67;;;2.67;;
14141;SDS011;7151;52.246;4.820;2023-11-21T02:07:04;3.33;;;2.43;;
14141;SDS011;7151;52.246;4.820;2023-11-21T02:09:32;3.83;;;2.20;;
14141;SDS011;7151;52.246;4.820;2023-11-21T02:11:59;3.57;;;2.30;;
14141;SDS011;7151;52.246;4.820;2023-11-21T02:14:26;4.80;;;2.73;;
14141;SDS011;7151;52.246;4.820;2023-11-21T02:16:53;3.13;;;2.53;;
14141;SDS011;7151;52.246;4.820;2023-11-21T02:19:19;5.80;;;3.07;;
14141;SDS011;7151;52.246;4.820;2023-11-21T02:21:49;3.60;;;2.23;;
14141;SDS011;7151;52.246;4.820;2023-11-21T02:24:17;6.27;;;2.50;;
14141;SDS011;7151;52.246;4.820;2023-11-21T02:26:46;3.63;;;2.73;;
14141;SDS011;7151;52.246;4.820;2023-11-21T02:29:12;3.30;;;2.27;;
14141;SDS011;7151;52.246;4.820;2023-11-21T02:31:38;3.90;;;2.17;;
14141;SDS011;7151;52.246;4.820;2023-11-21T02:34:12;4.43;;;2.50;;
14141;SDS011;7151;52.246;4.820;2023-11-21T02:36:39;2.97;;;2.67;;
14141;SDS011;7151;52.246;4.820;2023-11-21T02:39:05;5.03;;;3.03;;
14141;SDS011;7151;52.246;4.820;2023-11-21T02:41:32;4.10;;;2.40;;
14141;SDS011;7151;52.246;4.820;2023-11-21T02:43:59;4.47;;;2.37;;
14141;SDS011;7151;52.246;4.820;2023-11-21T02:46:25;5.43;;;2.50;;
14141;SDS011;7151;52.246;4.820;2023-11-21T02:48:51;3.90;;;2.67;;
14141;SDS011;7151;52.246;4.820;2023-11-21T02:51:19;5.00;;;2.80;;
14141;SDS011;7151;52.246;4.820;2023-11-21T02:53:44;6.50;;;2.90;;
14141;SDS011;7151;52.246;4.820;2023-11-21T02:56:11;5.87;;;2.57;;
14141;SDS011;7151;52.246;4.820;2023-11-21T02:58:37;2.90;;;2.07;;
14141;SDS011;7151;52.246;4.820;2023-11-21T03:01:03;5.63;;;2.83;;
14141;SDS011;7151;52.246;4.820;2023-11-21T03:03:32;2.97;;;2.60;;
14141;SDS011;7151;52.246;4.820;2023-11-21T03:05:57;6.70;;;2.60;;
14141;SDS011;7151;52.246;4.820;2023-11-21T03:08:23;2.70;;;2.47;;
14141;SDS011;7151;52.246;4.820;2023-11-21T03:10:49;7.17;;;2.57;;
14141;SDS011;7151;52.246;4.820;2023-11-21T03:13:14;2.50;;;2.30;;
14141;SDS011;7151;52.246;4.820;2023-11-21T03:15:40;5.00;;;2.90;;
14141;SDS011;7151;52.246;4.820;2023-11-21T03:18:05;4.37;;;2.57;;
14141;SDS011;7151;52.246;4.820;2023-11-21T03:20:31;3.63;;;2.63;;
14141;SDS011;7151;52.246;4.820;2023-11-21T03:22:56;3.30;;;2.23;;
14141;SDS011;7151;52.246;4.820;2023-11-21T03:25:24;3.60;;;2.87;;
14141;SDS011;7151;52.246;4.820;2023-11-21T03:27:50;5.07;;;2.73;;
14141;SDS011;7151;52.246;4.820;2023-11-21T03:30:16;5.83;;;2.43;;
14141;SDS011;7151;52.246;4.820;2023-11-21T03:32:41;4.17;;;3.30;;
14141;SDS011;7151;52.246;4.820;2023-11-21T03:35:07;5.00;;;2.60;;
14141;SDS011;7151;52.246;4.820;2023-11-21T03:37:33;6.77;;;2.43;;
14141;SDS011;7151;52.246;4.820;2023-11-21T03:39:58;3.73;;;2.40;;
14141;SDS011;7151;52.246;4.820;2023-11-21T03:42:24;4.63;;;2.93;;
14141;SDS011;7151;52.246;4.820;2023-11-21T03:44:51;4.37;;;2.40;;
14141;SDS011;7151;52.246;4.820;2023-11-21T03:47:17;4.13;;;2.53;;
14141;SDS011;7151;52.246;4.820;2023-11-21T03:49:44;4.33;;;3.03;;
14141;SDS011;7151;52.246;4.820;2023-11-21T03:52:10;5.37;;;2.77;;
14141;SDS011;7151;52.246;4.820;2023-11-21T03:54:36;4.27;;;2.67;;
14141;SDS011;7151;52.246;4.820;2023-11-21T03:57:02;4.50;;;2.67;;
14141;SDS011;7151;52.246;4.820;2023-11-21T03:59:28;5.03;;;2.83;;
14141;SDS011;7151;52.246;4.820;2023-11-21T04:01:55;3.60;;;2.57;;
14141;SDS011;7151;52.246;4.820;2023-11-21T04:04:22;3.27;;;2.37;;
14141;SDS011;7151;52.246;4.820;2023-11-21T04:06:47;4.90;;;2.83;;
14141;SDS011;7151;52.246;4.820;2023-11-21T04:09:13;5.83;;;2.47;;
14141;SDS011;7151;52.246;4.820;2023-11-21T04:11:39;4.87;;;2.50;;
14141;SDS011;7151;52.246;4.820;2023-11-21T04:14:04;5.30;;;2.80;;
14141;SDS011;7151;52.246;4.820;2023-11-21T04:16:30;4.63;;;2.87;;
14141;SDS011;7151;52.246;4.820;2023-11-21T04:18:55;5.00;;;2.77;;
14141;SDS011;7151;52.246;4.820;2023-11-21T04:21:22;3.37;;;2.50;;
14141;SDS011;7151;52.246;4.820;2023-11-21T04:23:49;4.27;;;2.47;;
14141;SDS011;7151;52.246;4.820;2023-11-21T04:26:14;4.33;;;2.87;;
14141;SDS011;7151;52.246;4.820;2023-11-21T04:28:40;7.27;;;2.87;;
14141;SDS011;7151;52.246;4.820;2023-11-21T04:31:06;3.50;;;2.57;;
14141;SDS011;7151;52.246;4.820;2023-11-21T04:33:32;6.43;;;3.10;;
14141;SDS011;7151;52.246;4.820;2023-11-21T04:35:57;3.77;;;2.77;;
14141;SDS011;7151;52.246;4.820;2023-11-21T04:38:23;6.13;;;2.77;;
14141;SDS011;7151;52.246;4.820;2023-11-21T04:40:49;5.27;;;2.50;;
14141;SDS011;7151;52.246;4.820;2023-11-21T04:43:14;6.60;;;2.97;;
14141;SDS011;7151;52.246;4.820;2023-11-21T04:45:40;7.13;;;2.37;;
14141;SDS011;7151;52.246;4.820;2023-11-21T04:48:06;3.33;;;2.93;;
14141;SDS011;7151;52.246;4.820;2023-11-21T04:50:33;3.90;;;2.60;;
14141;SDS011;7151;52.246;4.820;2023-11-21T04:52:59;4.37;;;2.93;;
14141;SDS011;7151;52.246;4.820;2023-11-21T04:55:24;5.33;;;2.73;;
14141;SDS011;7151;52.246;4.820;2023-11-21T04:57:53;3.47;;;2.40;;
14141;SDS011;7151;52.246;4.820;2023-11-21T05:00:18;5.23;;;3.17;;
14141;SDS011;7151;52.246;4.820;2023-11-21T05:02:46;5.00;;;3.00;;
14141;SDS011;7151;52.246;4.820;2023-11-21T05:05:11;5.60;;;2.80;;
14141;SDS011;7151;52.246;4.820;2023-11-21T05:07:37;5.50;;;3.07;;
14141;SDS011;7151;52.246;4.820;2023-11-21T05:10:05;4.60;;;2.77;;
14141;SDS011;7151;52.246;4.820;2023-11-21T05:12:37;3.70;;;2.90;;
14141;SDS011;7151;52.246;4.820;2023-11-21T05:15:06;4.27;;;2.67;;
14141;SDS011;7151;52.246;4.820;2023-11-21T05:17:36;4.17;;;2.60;;
14141;SDS011;7151;52.246;4.820;2023-11-21T05:20:04;6.73;;;3.27;;
14141;SDS011;7151;52.246;4.820;2023-11-21T05:22:33;5.27;;;3.03;;
14141;SDS011;7151;52.246;4.820;2023-11-21T05:24:59;5.30;;;2.80;;
14141;SDS011;7151;52.246;4.820;2023-11-21T05:27:25;4.43;;;2.37;;
14141;SDS011;7151;52.246;4.820;2023-11-21T05:29:51;7.90;;;2.70;;
14141;SDS011;7151;52.246;4.820;2023-11-21T05:32:16;5.47;;;2.63;;
14141;SDS011;7151;52.246;4.820;2023-11-21T05:34:42;4.70;;;2.70;;
14141;SDS011;7151;52.246;4.820;2023-11-21T05:37:08;2.83;;;2.57;;
14141;SDS011;7151;52.246;4.820;2023-11-21T05:39:34;2.70;;;2.30;;
14141;SDS011;7151;52.246;4.820;2023-11-21T05:42:00;3.17;;;2.17;;
14141;SDS011;7151;52.246;4.820;2023-11-21T05:44:26;4.37;;;2.40;;
14141;SDS011;7151;52.246;4.820;2023-11-21T05:46:52;4.07;;;2.10;;
14141;SDS011;7151;52.246;4.820;2023-11-21T05:49:18;3.50;;;1.90;;
14141;SDS011;7151;52.246;4.820;2023-11-21T05:51:46;2.20;;;1.70;;
14141;SDS011;7151;52.246;4.820;2023-11-21T05:54:12;2.03;;;1.57;;
14141;SDS011;7151;52.246;4.820;2023-11-21T05:56:38;2.10;;;1.60;;
14141;SDS011;7151;52.246;4.820;2023-11-21T05:59:04;2.80;;;2.50;;
14141;SDS011;7151;52.246;4.820;2023-11-21T06:01:29;1.90;;;1.47;;
14141;SDS011;7151;52.246;4.820;2023-11-21T06:03:55;3.83;;;1.80;;
14141;SDS011;7151;52.246;4.820;2023-11-21T06:06:22;3.20;;;1.63;;
14141;SDS011;7151;52.246;4.820;2023-11-21T06:08:49;4.17;;;1.60;;
14141;SDS011;7151;52.246;4.820;2023-11-21T06:11:15;2.10;;;1.50;;
14141;SDS011;7151;52.246;4.820;2023-11-21T06:13:41;2.40;;;1.33;;
14141;SDS011;7151;52.246;4.820;2023-11-21T06:16:07;3.97;;;1.57;;
14141;SDS011;7151;52.246;4.820;2023-11-21T06:18:33;3.83;;;1.57;;
14141;SDS011;7151;52.246;4.820;2023-11-21T06:21:00;1.97;;;1.33;;
14141;SDS011;7151;52.246;4.820;2023-11-21T06:23:25;3.33;;;2.00;;
14141;SDS011;7151;52.246;4.820;2023-11-21T06:25:51;3.43;;;1.67;;
14141;SDS011;7151;52.246;4.820;2023-11-21T06:28:17;2.23;;;1.57;;
14141;SDS011;7151;52.246;4.820;2023-11-21T06:30:43;4.50;;;1.40;;
14141;SDS011;7151;52.246;4.820;2023-11-21T06:33:12;3.97;;;1.90;;
14141;SDS011;7151;52.246;4.820;2023-11-21T06:35:37;6.03;;;2.00;;
14141;SDS011;7151;52.246;4.820;2023-11-21T06:38:03;3.80;;;1.53;;
14141;SDS011;7151;52.246;4.820;2023-11-21T06:40:28;2.97;;;1.73;;
14141;SDS011;7151;52.246;4.820;2023-11-21T06:42:54;4.80;;;1.57;;
14141;SDS011;7151;52.246;4.820;2023-11-21T06:45:20;3.17;;;1.87;;
14141;SDS011;7151;52.246;4.820;2023-11-21T06:47:46;3.40;;;1.60;;
14141;SDS011;7151;52.246;4.820;2023-11-21T06:50:12;4.50;;;1.90;;
14141;SDS011;7151;52.246;4.820;2023-11-21T06:52:38;3.57;;;2.00;;
14141;SDS011;7151;52.246;4.820;2023-11-21T06:55:03;3.40;;;1.90;;
14141;SDS011;7151;52.246;4.820;2023-11-21T06:57:29;2.33;;;1.30;;
14141;SDS011;7151;52.246;4.820;2023-11-21T06:59:56;2.50;;;1.20;;
14141;SDS011;7151;52.246;4.820;2023-11-21T07:02:22;3.13;;;1.93;;
14141;SDS011;7151;52.246;4.820;2023-11-21T07:04:48;2.40;;;2.20;;
14141;SDS011;7151;52.246;4.820;2023-11-21T07:07:14;4.47;;;1.87;;
14141;SDS011;7151;52.246;4.820;2023-11-21T07:09:40;4.27;;;2.23;;
14141;SDS011;7151;52.246;4.820;2023-11-21T07:12:05;5.10;;;2.17;;
14141;SDS011;7151;52.246;4.820;2023-11-21T07:14:33;3.67;;;2.07;;
14141;SDS011;7151;52.246;4.820;2023-11-21T07:16:59;2.83;;;2.20;;
14141;SDS011;7151;52.246;4.820;2023-11-21T07:19:24;2.80;;;2.27;;
14141;SDS011;7151;52.246;4.820;2023-11-21T07:21:50;3.30;;;2.30;;
14141;SDS011;7151;52.246;4.820;2023-11-21T07:24:16;2.13;;;1.90;;
14141;SDS011;7151;52.246;4.820;2023-11-21T07:26:42;2.27;;;1.70;;
14141;SDS011;7151;52.246;4.820;2023-11-21T07:29:08;4.93;;;1.80;;
14141;SDS011;7151;52.246;4.820;2023-11-21T07:31:33;3.70;;;2.00;;
14141;SDS011;7151;52.246;4.820;2023-11-21T07:33:59;5.37;;;2.50;;
14141;SDS011;7151;52.246;4.820;2023-11-21T07:36:26;2.53;;;2.10;;
14141;SDS011;7151;52.246;4.820;2023-11-21T07:38:52;3.33;;;1.87;;
14141;SDS011;7151;52.246;4.820;2023-11-21T07:41:18;5.60;;;2.33;;
14141;SDS011;7151;52.246;4.820;2023-11-21T07:43:44;3.90;;;2.20;;
14141;SDS011;7151;52.246;4.820;2023-11-21T07:46:10;4.30;;;2.23;;
14141;SDS011;7151;52.246;4.820;2023-11-21T07:48:37;3.90;;;2.00;;
14141;SDS011;7151;52.246;4.820;2023-11-21T07:51:04;4.77;;;2.73;;
14141;SDS011;7151;52.246;4.820;2023-11-21T07:53:30;4.23;;;2.60;;
14141;SDS011;7151;52.246;4.820;2023-11-21T07:55:56;5.63;;;2.40;;
14141;SDS011;7151;52.246;4.820;2023-11-21T07:58:23;3.93;;;2.60;;
14141;SDS011;7151;52.246;4.820;2023-11-21T08:00:49;7.43;;;2.80;;
14141;SDS011;7151;52.246;4.820;2023-11-21T08:03:15;4.80;;;3.13;;
14141;SDS011;7151;52.246;4.820;2023-11-21T08:05:41;6.67;;;3.20;;
14141;SDS011;7151;52.246;4.820;2023-11-21T08:08:07;4.40;;;2.63;;
14141;SDS011;7151;52.246;4.820;2023-11-21T08:10:33;5.27;;;2.73;;
14141;SDS011;7151;52.246;4.820;2023-11-21T08:12:58;5.40;;;2.40;;
14141;SDS011;7151;52.246;4.820;2023-11-21T08:15:24;7.03;;;2.97;;
14141;SDS011;7151;52.246;4.820;2023-11-21T08:17:50;3.90;;;2.60;;
14141;SDS011;7151;52.246;4.820;2023-11-21T08:20:16;3.77;;;2.57;;
14141;SDS011;7151;52.246;4.820;2023-11-21T08:22:43;4.87;;;3.07;;
14141;SDS011;7151;52.246;4.820;2023-11-21T08:25:09;6.33;;;3.50;;
14141;SDS011;7151;52.246;4.820;2023-11-21T08:27:34;5.30;;;3.07;;
14141;SDS011;7151;52.246;4.820;2023-11-21T08:30:00;4.53;;;2.40;;
14141;SDS011;7151;52.246;4.820;2023-11-21T08:32:28;4.60;;;2.27;;
14141;SDS011;7151;52.246;4.820;2023-11-21T08:34:55;3.60;;;2.10;;
14141;SDS011;7151;52.246;4.820;2023-11-21T08:37:21;3.63;;;2.27;;
14141;SDS011;7151;52.246;4.820;2023-11-21T08:39:47;2.90;;;2.30;;
14141;SDS011;7151;52.246;4.820;2023-11-21T08:42:17;4.63;;;2.33;;
14141;SDS011;7151;52.246;4.820;2023-11-21T08:44:44;4.33;;;2.77;;
14141;SDS011;7151;52.246;4.820;2023-11-21T08:47:09;2.53;;;1.80;;
14141;SDS011;7151;52.246;4.820;2023-11-21T08:49:35;3.30;;;2.10;;
14141;SDS011;7151;52.246;4.820;2023-11-21T08:52:01;2.20;;;1.57;;
14141;SDS011;7151;52.246;4.820;2023-11-21T08:54:27;3.10;;;2.30;;
14141;SDS011;7151;52.246;4.820;2023-11-21T08:56:53;3.73;;;1.50;;
14141;SDS011;7151;52.246;4.820;2023-11-21T08:59:19;4.03;;;2.03;;
14141;SDS011;7151;52.246;4.820;2023-11-21T09:01:45;2.40;;;1.90;;
14141;SDS011;7151;52.246;4.820;2023-11-21T09:04:11;3.67;;;1.73;;
14141;SDS011;7151;52.246;4.820;2023-11-21T09:06:38;2.60;;;1.80;;
14141;SDS011;7151;52.246;4.820;2023-11-21T09:09:04;4.10;;;2.17;;
14141;SDS011;7151;52.246;4.820;2023-11-21T09:11:31;3.13;;;1.93;;
14141;SDS011;7151;52.246;4.820;2023-11-21T09:13:59;4.57;;;2.27;;
14141;SDS011;7151;52.246;4.820;2023-11-21T09:16:25;2.67;;;1.90;;
14141;SDS011;7151;52.246;4.820;2023-11-21T09:18:51;3.23;;;2.27;;
14141;SDS011;7151;52.246;4.820;2023-11-21T09:21:16;3.97;;;2.00;;
14141;SDS011;7151;52.246;4.820;2023-11-21T09:23:45;3.90;;;2.20;;
14141;SDS011;7151;52.246;4.820;2023-11-21T09:26:10;4.17;;;2.50;;
14141;SDS011;7151;52.246;4.820;2023-11-21T09:28:36;4.00;;;2.37;;
14141;SDS011;7151;52.246;4.820;2023-11-21T09:31:07;3.30;;;2.70;;
14141;SDS011;7151;52.246;4.820;2023-11-21T09:33:34;3.53;;;2.30;;
14141;SDS011;7151;52.246;4.820;2023-11-21T09:36:00;5.20;;;2.17;;
14141;SDS011;7151;52.246;4.820;2023-11-21T09:38:26;4.17;;;1.90;;
14141;SDS011;7151;52.246;4.820;2023-11-21T09:40:53;2.83;;;2.07;;
14141;SDS011;7151;52.246;4.820;2023-11-21T09:43:20;3.30;;;2.47;;
14141;SDS011;7151;52.246;4.820;2023-11-21T09:45:47;3.57;;;2.67;;
14141;SDS011;7151;52.246;4.820;2023-11-21T09:48:19;5.33;;;2.70;;
14141;SDS011;7151;52.246;4.820;2023-11-21T09:50:46;6.50;;;2.83;;
14141;SDS011;7151;52.246;4.820;2023-11-21T09:53:13;4.27;;;2.53;;
14141;SDS011;7151;52.246;4.820;2023-11-21T09:55:49;5.80;;;3.37;;
14141;SDS011;7151;52.246;4.820;2023-11-21T09:58:17;5.10;;;3.60;;
14141;SDS011;7151;52.246;4.820;2023-11-21T10:00:47;5.37;;;3.87;;
14141;SDS011;7151;52.246;4.820;2023-11-21T10:03:17;8.00;;;3.53;;
14141;SDS011;7151;52.246;4.820;2023-11-21T10:05:43;7.47;;;3.43;;
14141;SDS011;7151;52.246;4.820;2023-11-21T10:08:11;8.63;;;4.00;;
14141;SDS011;7151;52.246;4.820;2023-11-21T10:10:38;6.90;;;4.20;;
14141;SDS011;7151;52.246;4.820;2023-11-21T10:13:12;6.70;;;3.57;;
14141;SDS011;7151;52.246;4.820;2023-11-21T10:15:41;7.67;;;3.87;;
14141;SDS011;7151;52.246;4.820;2023-11-21T10:18:13;4.97;;;3.43;;
14141;SDS011;7151;52.246;4.820;2023-11-21T10:20:40;5.83;;;3.43;;
14141;SDS011;7151;52.246;4.820;2023-11-21T10:23:06;7.13;;;3.63;;
14141;SDS011;7151;52.246;4.820;2023-11-21T10:25:36;6.60;;;3.70;;
14141;SDS011;7151;52.246;4.820;2023-11-21T10:28:02;5.00;;;3.43;;
14141;SDS011;7151;52.246;4.820;2023-11-21T10:30:35;4.33;;;3.07;;
14141;SDS011;7151;52.246;4.820;2023-11-21T10:33:03;6.43;;;3.60;;
14141;SDS011;7151;52.246;4.820;2023-11-21T10:35:51;4.77;;;3.20;;
14141;SDS011;7151;52.246;4.820;2023-11-21T10:38:19;6.33;;;3.03;;
14141;SDS011;7151;52.246;4.820;2023-11-21T10:40:49;4.03;;;2.43;;
14141;SDS011;7151;52.246;4.820;2023-11-21T10:43:15;4.80;;;3.47;;
14141;SDS011;7151;52.246;4.820;2023-11-21T10:45:42;5.93;;;2.93;;
14141;SDS011;7151;52.246;4.820;2023-11-21T10:48:09;4.17;;;2.50;;
14141;SDS011;7151;52.246;4.820;2023-11-21T10:50:42;2.83;;;2.30;;
14141;SDS011;7151;52.246;4.820;2023-11-21T10:53:09;3.93;;;2.90;;
14141;SDS011;7151;52.246;4.820;2023-11-21T10:55:36;2.73;;;1.67;;
14141;SDS011;7151;52.246;4.820;2023-11-21T10:58:03;4.30;;;2.47;;
14141;SDS011;7151;52.246;4.820;2023-11-21T11:00:30;3.30;;;1.70;;
14141;SDS011;7151;52.246;4.820;2023-11-21T11:02:56;3.80;;;2.07;;
14141;SDS011;7151;52.246;4.820;2023-11-21T11:05:24;2.50;;;2.27;;
14141;SDS011;7151;52.246;4.820;2023-11-21T11:07:51;4.07;;;2.10;;
14141;SDS011;7151;52.246;4.820;2023-11-21T11:10:30;2.33;;;1.73;;
14141;SDS011;7151;52.246;4.820;2023-11-21T11:12:57;4.57;;;2.63;;
14141;SDS011;7151;52.246;4.820;2023-11-21T11:15:24;4.97;;;3.00;;
14141;SDS011;7151;52.246;4.820;2023-11-21T11:17:51;4.80;;;2.70;;
14141;SDS011;7151;52.246;4.820;2023-11-21T11:20:17;9.37;;;3.60;;
14141;SDS011;7151;52.246;4.820;2023-11-21T11:28:20;6.67;;;3.23;;
14141;SDS011;7151;52.246;4.820;2023-11-21T11:31:04;6.30;;;3.20;;
14141;SDS011;7151;52.246;4.820;2023-11-21T11:42:03;4.90;;;2.93;;
14141;SDS011;7151;52.246;4.820;2023-11-21T11:47:14;6.00;;;3.40;;
14141;SDS011;7151;52.246;4.820;2023-11-21T11:55:07;4.97;;;3.03;;
14141;SDS011;7151;52.246;4.820;2023-11-21T11:57:37;4.33;;;2.77;;
14141;SDS011;7151;52.246;4.820;2023-11-21T12:00:11;4.40;;;2.83;;
14141;SDS011;7151;52.246;4.820;2023-11-21T12:02:46;4.00;;;3.07;;
14141;SDS011;7151;52.246;4.820;2023-11-21T12:05:17;4.40;;;2.80;;
14141;SDS011;7151;52.246;4.820;2023-11-21T12:10:11;3.50;;;2.60;;
14141;SDS011;7151;52.246;4.820;2023-11-21T12:12:41;5.03;;;3.00;;
14141;SDS011;7151;52.246;4.820;2023-11-21T12:15:08;4.57;;;3.00;;
14141;SDS011;7151;52.246;4.820;2023-11-21T12:17:35;3.90;;;2.50;;
14141;SDS011;7151;52.246;4.820;2023-11-21T12:20:02;5.73;;;2.50;;
14141;SDS011;7151;52.246;4.820;2023-11-21T12:22:29;5.07;;;3.40;;
14141;SDS011;7151;52.246;4.820;2023-11-21T12:24:55;4.47;;;3.00;;
14141;SDS011;7151;52.246;4.820;2023-11-21T12:27:21;4.93;;;2.90;;
14141;SDS011;7151;52.246;4.820;2023-11-21T12:29:47;6.57;;;3.43;;
14141;SDS011;7151;52.246;4.820;2023-11-21T12:32:12;4.20;;;3.00;;
14141;SDS011;7151;52.246;4.820;2023-11-21T12:34:40;4.17;;;2.67;;
14141;SDS011;7151;52.246;4.820;2023-11-21T12:37:06;4.50;;;3.13;;
14141;SDS011;7151;52.246;4.820;2023-11-21T12:39:31;4.63;;;3.87;;
14141;SDS011;7151;52.246;4.820;2023-11-21T12:41:57;5.03;;;2.90;;
14141;SDS011;7151;52.246;4.820;2023-11-21T12:44:23;4.50;;;2.70;;
14141;SDS011;7151;52.246;4.820;2023-11-21T12:46:49;4.63;;;2.97;;
14141;SDS011;7151;52.246;4.820;2023-11-21T12:49:15;4.57;;;2.90;;
14141;SDS011;7151;52.246;4.820;2023-11-21T12:51:44;4.20;;;2.80;;
14141;SDS011;7151;52.246;4.820;2023-11-21T12:54:12;4.57;;;3.10;;
14141;SDS011;7151;52.246;4.820;2023-11-21T12:56:38;5.23;;;3.30;;
14141;SDS011;7151;52.246;4.820;2023-11-21T12:59:04;5.10;;;3.40;;
14141;SDS011;7151;52.246;4.820;2023-11-21T13:01:30;5.07;;;3.47;;
14141;SDS011;7151;52.246;4.820;2023-11-21T13:03:59;4.93;;;3.50;;
14141;SDS011;7151;52.246;4.820;2023-11-21T13:06:27;8.47;;;3.47;;
14141;SDS011;7151;52.246;4.820;2023-11-21T13:08:56;7.87;;;3.80;;
14141;SDS011;7151;52.246;4.820;2023-11-21T13:11:24;6.27;;;3.67;;
14141;SDS011;7151;52.246;4.820;2023-11-21T13:13:52;4.20;;;3.20;;
14141;SDS011;7151;52.246;4.820;2023-11-21T13:16:19;5.03;;;3.27;;
14141;SDS011;7151;52.246;4.820;2023-11-21T13:18:45;8.50;;;4.30;;
14141;SDS011;7151;52.246;4.820;2023-11-21T13:21:11;4.97;;;3.17;;
14141;SDS011;7151;52.246;4.820;2023-11-21T13:23:41;4.67;;;3.30;;
14141;SDS011;7151;52.246;4.820;2023-11-21T13:26:07;5.03;;;3.50;;
14141;SDS011;7151;52.246;4.820;2023-11-21T13:28:34;5.63;;;3.33;;
14141;SDS011;7151;52.246;4.820;2023-11-21T13:31:01;5.37;;;3.50;;
14141;SDS011;7151;52.246;4.820;2023-11-21T13:33:37;4.67;;;3.63;;
14141;SDS011;7151;52.246;4.820;2023-11-21T13:36:07;5.87;;;3.40;;
14141;SDS011;7151;52.246;4.820;2023-11-21T13:38:34;5.90;;;3.33;;
14141;SDS011;7151;52.246;4.820;2023-11-21T13:41:02;6.60;;;3.80;;
14141;SDS011;7151;52.246;4.820;2023-11-21T13:43:32;7.43;;;4.43;;
14141;SDS011;7151;52.246;4.820;2023-11-21T13:45:58;5.60;;;3.90;;
14141;SDS011;7151;52.246;4.820;2023-11-21T13:48:28;6.00;;;4.30;;
14141;SDS011;7151;52.246;4.820;2023-11-21T13:50:59;5.47;;;3.47;;
14141;SDS011;7151;52.246;4.820;2023-11-21T13:53:35;6.00;;;4.13;;
14141;SDS011;7151;52.246;4.820;2023-11-21T13:56:03;6.47;;;4.37;;
14141;SDS011;7151;52.246;4.820;2023-11-21T13:58:30;5.40;;;3.77;;
14141;SDS011;7151;52.246;4.820;2023-11-21T14:01:11;8.27;;;4.30;;
14141;SDS011;7151;52.246;4.820;2023-11-21T14:04:03;5.83;;;4.00;;
14141;SDS011;7151;52.246;4.820;2023-11-21T14:06:47;4.37;;;3.53;;
14141;SDS011;7151;52.246;4.820;2023-11-21T14:09:19;4.87;;;3.33;;
14141;SDS011;7151;52.246;4.820;2023-11-21T14:11:50;5.37;;;3.20;;
14141;SDS011;7151;52.246;4.820;2023-11-21T14:14:22;5.83;;;3.07;;
14141;SDS011;7151;52.246;4.820;2023-11-21T14:16:50;6.27;;;3.13;;
14141;SDS011;7151;52.246;4.820;2023-11-21T14:19:16;4.77;;;2.77;;
14141;SDS011;7151;52.246;4.820;2023-11-21T14:21:43;4.20;;;3.63;;
14141;SDS011;7151;52.246;4.820;2023-11-21T14:24:10;6.50;;;3.10;;
14141;SDS011;7151;52.246;4.820;2023-11-21T14:26:42;6.93;;;3.67;;
14141;SDS011;7151;52.246;4.820;2023-11-21T14:29:08;4.17;;;2.97;;
14141;SDS011;7151;52.246;4.820;2023-11-21T14:31:36;9.20;;;5.87;;
14141;SDS011;7151;52.246;4.820;2023-11-21T14:34:02;8.50;;;5.90;;
14141;SDS011;7151;52.246;4.820;2023-11-21T14:36:28;10.03;;;6.73;;
14141;SDS011;7151;52.246;4.820;2023-11-21T14:38:54;10.87;;;5.50;;
14141;SDS011;7151;52.246;4.820;2023-11-21T14:41:20;9.60;;;6.27;;
14141;SDS011;7151;52.246;4.820;2023-11-21T14:43:45;9.67;;;6.27;;
14141;SDS011;7151;52.246;4.820;2023-11-21T14:46:14;6.30;;;4.73;;
14141;SDS011;7151;52.246;4.820;2023-11-21T14:48:42;7.27;;;5.20;;
14141;SDS011;7151;52.246;4.820;2023-11-21T14:51:08;10.60;;;7.17;;
14141;SDS011;7151;52.246;4.820;2023-11-21T14:53:58;5.77;;;3.87;;
14141;SDS011;7151;52.246;4.820;2023-11-21T14:56:35;4.97;;;3.83;;
14141;SDS011;7151;52.246;4.820;2023-11-21T14:59:02;6.00;;;4.20;;
14141;SDS011;7151;52.246;4.820;2023-11-21T15:01:37;4.80;;;3.60;;
14141;SDS011;7151;52.246;4.820;2023-11-21T15:04:20;5.67;;;3.40;;
14141;SDS011;7151;52.246;4.820;2023-11-21T15:07:03;4.97;;;3.57;;
14141;SDS011;7151;52.246;4.820;2023-11-21T15:09:29;6.23;;;4.17;;
14141;SDS011;7151;52.246;4.820;2023-11-21T15:11:58;3.67;;;2.70;;
14141;SDS011;7151;52.246;4.820;2023-11-21T15:14:49;5.00;;;3.37;;
14141;SDS011;7151;52.246;4.820;2023-11-21T15:17:21;4.50;;;3.40;;
14141;SDS011;7151;52.246;4.820;2023-11-21T15:19:49;3.73;;;2.97;;
14141;SDS011;7151;52.246;4.820;2023-11-21T15:22:15;7.00;;;3.37;;
14141;SDS011;7151;52.246;4.820;2023-11-21T15:24:42;4.00;;;3.23;;